Time;durP1;ratioP1;P1;durP2;ratioP2;P2;SDS_P1;SDS_P2;PMS_P1;PMS_P2;Temp;Humidity;BMP_temperature;BMP_pressure;BME280_temperature;BME280_humidity;BME280_pressure;Samples;Min_cycle;Max_cycle;Signal;HPM_P1;HPM_P2
2021/12/19 00:00:37;;;;;;;12.13;1.90;;;11.20;51.40;;;;;;5055870;28;20675;-48
2021/12/19 00:11:18;;;;;;;1.52;1.02;;;11.10;51.60;;;;;;5055550;28;20468;-48
2021/12/19 00:13:46;;;;;;;1.70;0.90;;;11.20;51.40;;;;;;5054624;28;20613;-48
2021/12/19 00:16:14;;;;;;;2.50;1.63;;;11.20;51.10;;;;;;5055573;28;20262;-48
2021/12/19 00:18:47;;;;;;;2.83;1.25;;;11.10;50.70;;;;;;5038068;28;20641;-48
2021/12/19 00:21:15;;;;;;;3.00;2.38;;;11.10;51.10;;;;;;5054556;28;20196;-48
2021/12/19 00:23:43;;;;;;;3.17;1.33;;;11.00;50.80;;;;;;5038119;28;20162;-48
2021/12/19 00:26:11;;;;;;;2.13;1.13;;;10.90;50.70;;;;;;5055103;28;20165;-48
2021/12/19 00:28:39;;;;;;;1.90;0.70;;;11.00;50.80;;;;;;5055456;28;20164;-48
2021/12/19 00:31:07;;;;;;;1.95;1.23;;;11.00;51.00;;;;;;5038110;28;20170;-48
2021/12/19 00:33:37;;;;;;;2.28;1.20;;;11.20;50.40;;;;;;5054369;28;20169;-48
2021/12/19 00:36:06;;;;;;;3.03;1.77;;;11.10;50.40;;;;;;5054283;28;20169;-48
2021/12/19 00:38:34;;;;;;;2.85;1.13;;;11.10;50.40;;;;;;5055091;28;20664;-48
2021/12/19 00:41:03;;;;;;;2.08;1.48;;;11.20;50.20;;;;;;5054178;28;20214;-48
2021/12/19 00:43:45;;;;;;;1.58;0.88;;;11.30;50.20;;;;;;5054290;28;20172;-48
2021/12/19 00:46:16;;;;;;;2.78;1.10;;;11.30;50.00;;;;;;5052263;28;20563;-48
2021/12/19 00:48:49;;;;;;;5.68;2.45;;;11.30;49.60;;;;;;5018085;28;20162;-48
2021/12/19 00:51:22;;;;;;;4.07;1.52;;;11.20;49.90;;;;;;4986516;28;20208;-48
2021/12/19 00:53:51;;;;;;;1.73;1.42;;;11.20;50.00;;;;;;5017585;28;20562;-48
2021/12/19 00:56:18;;;;;;;2.83;1.73;;;11.20;50.20;;;;;;5017753;28;20193;-48
2021/12/19 00:58:46;;;;;;;2.83;1.85;;;11.10;50.00;;;;;;5034850;28;20506;-48
2021/12/19 01:01:15;;;;;;;2.75;1.65;;;11.20;50.20;;;;;;5018013;28;20208;-48
2021/12/19 01:03:44;;;;;;;1.67;1.00;;;11.20;50.10;;;;;;5017191;28;20169;-48
2021/12/19 01:06:12;;;;;;;6.90;2.08;;;11.10;50.20;;;;;;5017751;28;20170;-48
2021/12/19 01:08:39;;;;;;;3.70;1.55;;;11.10;50.30;;;;;;5034757;28;20154;-48
2021/12/19 01:11:06;;;;;;;2.45;1.20;;;11.10;49.90;;;;;;5034851;28;20174;-48
2021/12/19 01:13:34;;;;;;;2.30;1.88;;;11.20;49.90;;;;;;5034770;28;20162;-48
2021/12/19 01:16:02;;;;;;;1.90;1.52;;;11.20;49.70;;;;;;5034653;28;20244;-48
2021/12/19 01:18:29;;;;;;;2.45;1.73;;;11.20;49.70;;;;;;5017794;28;20173;-48
2021/12/19 01:20:58;;;;;;;4.60;2.30;;;11.10;49.60;;;;;;5017674;28;20256;-48
2021/12/19 01:23:26;;;;;;;2.70;1.90;;;11.10;49.80;;;;;;5017836;28;20622;-48
2021/12/19 01:25:53;;;;;;;2.17;1.75;;;11.10;49.80;;;;;;5017431;28;20622;-48
2021/12/19 01:28:21;;;;;;;2.60;1.05;;;11.10;49.70;;;;;;5034580;28;20302;-48
2021/12/19 01:30:48;;;;;;;3.03;1.85;;;11.20;49.70;;;;;;5017618;28;20173;-48
2021/12/19 01:33:16;;;;;;;2.08;1.50;;;11.20;49.50;;;;;;5017533;28;20621;-48
2021/12/19 01:35:44;;;;;;;2.00;1.45;;;11.30;49.40;;;;;;5034476;28;20180;-48
2021/12/19 01:38:11;;;;;;;4.03;2.08;;;11.30;49.20;;;;;;5017403;28;20205;-48
2021/12/19 01:40:39;;;;;;;3.45;1.60;;;11.20;49.50;;;;;;5017248;28;20220;-48
2021/12/19 01:43:07;;;;;;;2.75;1.58;;;11.30;49.30;;;;;;5034358;28;20170;-48
2021/12/19 01:45:38;;;;;;;1.88;0.85;;;11.10;49.50;;;;;;5017272;28;20167;-47
2021/12/19 01:48:10;;;;;;;2.85;1.40;;;11.00;49.70;;;;;;5048373;28;20645;-48
2021/12/19 01:50:38;;;;;;;3.20;2.10;;;11.00;49.60;;;;;;5054451;28;20165;-48
2021/12/19 01:53:08;;;;;;;3.60;1.75;;;10.90;49.70;;;;;;5053296;28;20251;-48
2021/12/19 01:55:36;;;;;;;3.30;1.85;;;10.80;49.90;;;;;;5053419;28;20222;-48
2021/12/19 01:58:04;;;;;;;2.78;2.47;;;10.90;49.80;;;;;;5053559;28;20257;-48
2021/12/19 02:00:38;;;;;;;4.78;1.95;;;10.90;49.30;;;;;;5036911;28;20219;-48
2021/12/19 02:03:07;;;;;;;2.38;1.25;;;10.90;49.80;;;;;;5037593;28;20237;-48
2021/12/19 02:05:35;;;;;;;2.13;1.52;;;11.00;49.50;;;;;;5054322;28;20173;-48
2021/12/19 02:08:04;;;;;;;2.92;2.10;;;10.80;49.70;;;;;;5054153;28;20169;-48
2021/12/19 02:10:33;;;;;;;3.08;1.27;;;10.90;49.80;;;;;;5054155;28;20225;-48
2021/12/19 02:13:03;;;;;;;5.47;2.22;;;10.80;49.90;;;;;;5053328;28;20176;-48
2021/12/19 02:15:31;;;;;;;1.90;1.10;;;10.90;49.90;;;;;;5055504;28;20161;-48
2021/12/19 02:18:04;;;;;;;2.60;2.10;;;10.90;49.70;;;;;;5056838;28;20165;-48
2021/12/19 02:20:36;;;;;;;2.28;1.05;;;10.90;49.70;;;;;;5057011;28;20189;-48
2021/12/19 02:23:04;;;;;;;2.15;1.35;;;11.00;49.30;;;;;;5041342;28;20162;-48
2021/12/19 02:25:32;;;;;;;3.60;1.67;;;11.10;49.30;;;;;;5040964;28;20173;-48
2021/12/19 02:28:00;;;;;;;3.80;2.17;;;11.00;49.50;;;;;;5057609;28;20187;-48
2021/12/19 02:30:28;;;;;;;2.40;1.67;;;11.10;49.40;;;;;;5057466;28;20173;-48
2021/12/19 02:32:56;;;;;;;2.67;0.95;;;10.90;49.60;;;;;;5057583;28;20180;-48
2021/12/19 02:35:28;;;;;;;4.25;1.48;;;10.90;49.70;;;;;;5056516;28;20169;-48
2021/12/19 02:38:27;;;;;;;3.58;2.28;;;10.90;49.10;;;;;;5056453;28;20568;-48
2021/12/19 02:49:05;;;;;;;2.10;1.58;;;11.00;49.10;;;;;;5037625;28;20311;-48
2021/12/19 02:51:34;;;;;;;2.95;1.30;;;11.00;49.00;;;;;;5019999;28;20166;-48
2021/12/19 02:54:03;;;;;;;3.85;2.33;;;10.90;49.20;;;;;;5037283;28;20181;-48
2021/12/19 02:56:31;;;;;;;3.33;2.28;;;10.80;49.00;;;;;;5003717;28;20188;-48
2021/12/19 02:58:59;;;;;;;4.53;1.95;;;10.90;49.40;;;;;;5020049;28;20618;-48
2021/12/19 03:01:27;;;;;;;2.88;2.03;;;10.90;49.20;;;;;;5019805;28;20700;-48
2021/12/19 03:03:54;;;;;;;3.65;2.00;;;10.90;49.40;;;;;;5037005;28;20173;-48
2021/12/19 03:06:22;;;;;;;3.10;1.58;;;10.80;48.90;;;;;;5003669;28;20169;-48
2021/12/19 03:08:51;;;;;;;3.17;2.13;;;10.70;49.70;;;;;;5036828;28;20245;-48
2021/12/19 03:19:36;;;;;;;3.72;1.80;;;10.80;49.00;;;;;;5022135;28;20168;-48
2021/12/19 03:22:04;;;;;;;3.60;2.78;;;10.70;49.60;;;;;;5019270;28;20180;-48
2021/12/19 03:24:31;;;;;;;3.05;2.53;;;10.70;49.50;;;;;;5019468;28;20165;-48
2021/12/19 03:26:58;;;;;;;2.50;1.33;;;10.80;49.10;;;;;;5035887;28;20178;-48
2021/12/19 03:29:25;;;;;;;2.88;2.03;;;10.90;49.20;;;;;;5019276;28;20158;-48
2021/12/19 03:31:52;;;;;;;2.13;1.50;;;10.90;48.90;;;;;;5019266;28;20678;-48
2021/12/19 03:34:20;;;;;;;2.70;1.42;;;10.80;48.70;;;;;;5036360;28;20162;-49
2021/12/19 03:36:48;;;;;;;2.95;1.60;;;10.70;48.40;;;;;;5036861;28;20162;-48
2021/12/19 03:39:25;;;;;;;2.10;1.13;;;10.80;48.80;;;;;;5019192;28;20651;-48
2021/12/19 03:41:57;;;;;;;3.78;1.20;;;10.80;48.40;;;;;;5020705;28;20220;-47
2021/12/19 03:44:24;;;;;;;1.92;1.75;;;10.60;48.70;;;;;;5036167;28;20232;-48
2021/12/19 03:46:52;;;;;;;2.40;2.15;;;10.60;49.20;;;;;;5029208;28;20209;-48
2021/12/19 03:49:20;;;;;;;5.45;2.15;;;10.80;49.40;;;;;;5055191;28;20162;-48
2021/12/19 03:51:48;;;;;;;3.38;1.73;;;10.80;48.90;;;;;;5055187;28;20166;-48
2021/12/19 03:54:15;;;;;;;3.67;1.80;;;10.80;48.70;;;;;;5055875;28;20165;-48
2021/12/19 03:56:43;;;;;;;2.13;1.40;;;10.70;48.20;;;;;;5054987;28;20161;-48
2021/12/19 03:59:11;;;;;;;3.22;1.70;;;10.50;49.10;;;;;;5056004;28;20173;-48
2021/12/19 04:01:39;;;;;;;1.50;1.10;;;10.50;49.00;;;;;;5055674;28;20246;-48
2021/12/19 04:04:06;;;;;;;4.53;1.88;;;10.60;48.70;;;;;;5055751;28;20203;-48
2021/12/19 04:06:33;;;;;;;2.67;2.00;;;10.70;48.80;;;;;;5055663;28;20153;-48
2021/12/19 04:09:02;;;;;;;2.13;1.40;;;10.80;48.50;;;;;;5038339;28;20176;-48
2021/12/19 04:11:30;;;;;;;1.60;1.20;;;10.80;48.00;;;;;;5054930;28;20251;-48
2021/12/19 04:13:57;;;;;;;1.65;0.93;;;10.70;48.10;;;;;;5055715;28;20173;-48
2021/12/19 04:16:25;;;;;;;1.98;1.20;;;10.70;48.00;;;;;;5054709;28;20211;-48
2021/12/19 04:18:52;;;;;;;4.20;1.25;;;10.70;48.10;;;;;;5055595;28;20248;-48
2021/12/19 04:21:20;;;;;;;1.92;1.60;;;10.80;48.30;;;;;;5055479;28;20208;-48
2021/12/19 04:23:47;;;;;;;1.73;0.98;;;10.90;48.00;;;;;;5054464;28;20169;-48
2021/12/19 04:26:14;;;;;;;3.83;2.25;;;10.80;48.10;;;;;;5055459;28;20164;-48
2021/12/19 04:28:42;;;;;;;2.25;1.80;;;10.90;48.00;;;;;;5054445;28;20158;-48
2021/12/19 04:31:10;;;;;;;3.15;1.73;;;10.90;48.00;;;;;;5054345;28;20162;-48
2021/12/19 04:33:39;;;;;;;3.28;2.50;;;10.80;48.30;;;;;;5055109;28;20203;-48
2021/12/19 04:36:09;;;;;;;2.70;1.80;;;10.80;48.40;;;;;;5055297;28;20183;-48
2021/12/19 04:52:31;;;;;;;6.85;1.80;;;10.70;48.40;;;;;;5035551;28;20491;-48
2021/12/19 05:00:11;;;;;;;2.25;1.20;;;10.70;48.20;;;;;;5001446;28;20535;-48
2021/12/19 05:16:02;;;;;;;4.40;1.58;;;10.70;48.50;;;;;;5034896;28;20667;-48
2021/12/19 05:18:33;;;;;;;3.78;1.60;;;10.60;48.60;;;;;;5034641;28;20182;-48
2021/12/19 05:21:06;;;;;;;4.03;0.95;;;10.60;48.80;;;;;;5017151;28;20221;-48
2021/12/19 05:26:14;;;;;;;2.10;1.38;;;10.60;48.10;;;;;;5002945;28;20150;-48
2021/12/19 05:28:42;;;;;;;2.45;1.42;;;10.60;48.50;;;;;;5017566;28;20166;-48
2021/12/19 05:31:09;;;;;;;1.90;1.27;;;10.60;48.40;;;;;;5017512;28;20181;-48
2021/12/19 05:33:37;;;;;;;2.17;0.98;;;10.50;48.40;;;;;;5034569;28;20488;-48
2021/12/19 05:44:09;;;;;;;2.97;1.75;;;10.60;48.20;;;;;;5034775;28;20170;-48
2021/12/19 05:46:44;;;;;;;1.98;1.42;;;10.50;48.30;;;;;;5034288;28;20285;-48
2021/12/19 05:49:11;;;;;;;2.38;1.60;;;10.50;48.00;;;;;;5034375;28;20162;-48
2021/12/19 05:51:40;;;;;;;2.75;2.13;;;10.50;48.30;;;;;;5037705;28;20598;-48
2021/12/19 05:54:09;;;;;;;3.85;2.58;;;10.70;48.20;;;;;;5004879;28;20555;-48
2021/12/19 05:56:37;;;;;;;2.15;1.67;;;10.70;47.90;;;;;;5038023;28;20212;-48
2021/12/19 05:59:06;;;;;;;2.40;1.15;;;10.60;47.80;;;;;;5004745;28;20166;-48
2021/12/19 06:01:34;;;;;;;3.35;1.60;;;10.60;48.10;;;;;;5020844;28;20206;-48
2021/12/19 06:04:02;;;;;;;2.63;1.35;;;10.70;48.10;;;;;;5005081;28;20193;-48
2021/12/19 06:06:29;;;;;;;3.85;1.33;;;10.70;48.40;;;;;;5038165;28;20166;-48
2021/12/19 06:08:56;;;;;;;2.88;2.10;;;10.60;47.80;;;;;;5038135;28;20166;-48
2021/12/19 06:11:24;;;;;;;4.72;1.77;;;10.70;47.70;;;;;;5038132;28;20163;-48
2021/12/19 06:13:51;;;;;;;4.68;2.17;;;10.70;47.70;;;;;;5020836;28;20166;-48
2021/12/19 06:16:19;;;;;;;2.30;1.30;;;10.80;47.60;;;;;;5037923;28;20166;-48
2021/12/19 06:18:47;;;;;;;1.88;0.98;;;10.70;47.30;;;;;;5020716;28;20170;-48
2021/12/19 06:21:14;;;;;;;3.15;1.70;;;10.60;47.60;;;;;;5037575;28;20190;-48
2021/12/19 06:23:41;;;;;;;2.38;1.60;;;10.50;48.20;;;;;;5020529;28;20507;-48
2021/12/19 06:26:10;;;;;;;3.83;3.05;;;10.50;48.20;;;;;;5037675;28;20245;-48
2021/12/19 06:28:38;;;;;;;3.03;2.40;;;10.50;47.70;;;;;;5037456;28;20181;-48
2021/12/19 06:31:05;;;;;;;3.67;2.78;;;10.50;48.00;;;;;;5037679;28;20166;-48
2021/12/19 06:33:34;;;;;;;2.53;1.38;;;10.50;48.20;;;;;;5037481;28;20195;-48
2021/12/19 06:36:01;;;;;;;4.60;1.50;;;10.50;48.20;;;;;;5020069;28;20512;-48
2021/12/19 06:38:29;;;;;;;4.22;2.92;;;10.50;48.10;;;;;;5037247;28;20570;-48
2021/12/19 06:40:56;;;;;;;4.35;2.70;;;10.50;47.80;;;;;;5020113;28;20624;-48
2021/12/19 06:43:25;;;;;;;3.67;2.05;;;10.40;49.00;;;;;;5037446;28;20192;-48
2021/12/19 06:45:55;;;;;;;6.25;2.17;;;10.50;48.30;;;;;;5020267;28;20158;-48
2021/12/19 06:48:24;;;;;;;3.72;1.98;;;10.30;48.50;;;;;;5038256;28;20228;-49
2021/12/19 06:50:52;;;;;;;3.50;2.50;;;10.40;48.30;;;;;;5057068;28;20188;-48
2021/12/19 06:53:20;;;;;;;1.60;1.20;;;10.40;48.50;;;;;;5039886;28;20166;-48
2021/12/19 06:55:47;;;;;;;2.80;1.17;;;10.40;48.60;;;;;;5057017;28;20256;-48
2021/12/19 06:58:14;;;;;;;4.28;1.98;;;10.50;48.30;;;;;;5057098;28;20169;-48
2021/12/19 07:00:41;;;;;;;4.75;2.55;;;10.50;48.20;;;;;;5055991;28;20197;-48
2021/12/19 07:03:10;;;;;;;6.28;4.70;;;10.50;48.50;;;;;;5055083;28;20166;-48
2021/12/19 07:05:38;;;;;;;2.67;1.70;;;10.50;48.60;;;;;;5039586;28;20177;-48
2021/12/19 07:08:06;;;;;;;4.53;2.78;;;10.50;49.40;;;;;;5056585;28;20171;-48
2021/12/19 07:10:34;;;;;;;3.38;2.28;;;10.40;48.90;;;;;;5057016;28;20180;-48
2021/12/19 07:13:01;;;;;;;7.50;3.13;;;10.30;49.90;;;;;;5056834;28;20165;-48
2021/12/19 07:15:29;;;;;;;3.67;2.30;;;10.30;49.40;;;;;;5056004;28;20240;-48
2021/12/19 07:18:02;;;;;;;3.40;1.88;;;10.30;49.40;;;;;;5056578;28;20184;-48
2021/12/19 07:20:31;;;;;;;3.50;1.70;;;10.30;49.20;;;;;;5056465;28;20583;-48
2021/12/19 07:22:58;;;;;;;3.95;1.70;;;10.30;49.50;;;;;;5055779;28;20171;-48
2021/12/19 07:25:26;;;;;;;2.83;1.75;;;10.40;49.30;;;;;;5055478;28;20239;-48
2021/12/19 07:27:53;;;;;;;3.08;1.48;;;10.40;49.30;;;;;;5055452;28;20172;-48
2021/12/19 07:30:25;;;;;;;5.35;3.13;;;10.30;49.70;;;;;;5056360;28;20181;-48
2021/12/19 07:32:54;;;;;;;1.90;1.35;;;10.30;49.80;;;;;;5056226;28;20528;-48
2021/12/19 07:35:23;;;;;;;2.75;2.08;;;10.30;50.10;;;;;;5056223;28;20308;-47
2021/12/19 07:37:52;;;;;;;4.20;2.67;;;10.30;50.40;;;;;;5056662;28;20165;-47
2021/12/19 07:40:21;;;;;;;3.03;1.45;;;10.20;50.70;;;;;;5055143;28;20204;-48
2021/12/19 07:42:49;;;;;;;4.88;2.53;;;10.20;50.80;;;;;;5056397;28;20251;-48
2021/12/19 07:45:17;;;;;;;4.22;1.73;;;10.10;50.90;;;;;;5038879;28;20176;-48
2021/12/19 07:47:46;;;;;;;4.20;2.13;;;10.20;51.00;;;;;;5055045;28;20217;-48
2021/12/19 07:50:14;;;;;;;2.75;1.80;;;10.10;51.50;;;;;;5055102;28;20169;-48
2021/12/19 07:52:41;;;;;;;4.10;2.72;;;10.20;51.00;;;;;;5055291;28;20200;-48
2021/12/19 07:55:09;;;;;;;2.30;1.60;;;10.20;51.10;;;;;;5055220;28;20279;-48
2021/12/19 07:57:37;;;;;;;4.65;2.28;;;10.20;51.20;;;;;;5055779;28;20708;-48
2021/12/19 08:00:08;;;;;;;3.65;2.08;;;10.10;51.40;;;;;;5054778;28;20484;-48
2021/12/19 08:02:36;;;;;;;4.25;2.20;;;9.90;52.10;;;;;;5038268;28;20165;-48
2021/12/19 08:05:03;;;;;;;2.33;1.48;;;10.00;52.10;;;;;;5056132;28;20161;-48
2021/12/19 08:07:31;;;;;;;3.83;2.15;;;9.80;52.70;;;;;;5038139;28;20176;-48
2021/12/19 08:12:36;;;;;;;3.85;2.08;;;10.00;52.10;;;;;;5054605;28;20153;-48
2021/12/19 08:15:04;;;;;;;7.63;2.90;;;10.10;52.10;;;;;;5055468;28;20180;-48
2021/12/19 08:17:32;;;;;;;2.50;1.60;;;10.10;52.00;;;;;;5038169;28;20260;-48
2021/12/19 08:19:59;;;;;;;3.17;2.88;;;10.10;51.90;;;;;;5055505;28;20169;-48
2021/12/19 08:22:29;;;;;;;4.18;1.88;;;10.10;52.00;;;;;;5054799;28;20168;-48
2021/12/19 08:24:57;;;;;;;5.13;2.78;;;10.10;51.90;;;;;;5055183;28;20614;-48
2021/12/19 08:27:26;;;;;;;3.60;1.98;;;10.10;51.90;;;;;;5071583;28;20601;-48
2021/12/19 08:29:54;;;;;;;3.42;2.00;;;10.10;52.20;;;;;;5037843;28;20183;-48
2021/12/19 08:32:23;;;;;;;3.15;1.83;;;10.10;52.20;;;;;;5070848;28;20165;-48
2021/12/19 08:34:51;;;;;;;5.07;3.05;;;10.00;52.60;;;;;;5054289;28;20623;-48
2021/12/19 08:37:18;;;;;;;3.15;1.55;;;10.10;52.20;;;;;;5038040;28;20575;-48
2021/12/19 08:39:47;;;;;;;5.13;2.70;;;10.10;51.90;;;;;;5054266;28;20196;-48
2021/12/19 08:42:15;;;;;;;6.18;2.58;;;10.00;52.30;;;;;;5055101;28;20189;-48
2021/12/19 08:44:43;;;;;;;2.42;1.65;;;9.80;52.90;;;;;;5054403;28;20200;-48
2021/12/19 08:47:11;;;;;;;5.40;2.75;;;10.00;52.60;;;;;;5045992;28;20233;-48
2021/12/19 08:49:41;;;;;;;4.07;2.00;;;10.00;52.40;;;;;;5034980;28;20168;-48
2021/12/19 08:52:10;;;;;;;4.50;2.28;;;10.10;52.20;;;;;;5034910;28;20158;-48
2021/12/19 08:54:38;;;;;;;1.58;1.25;;;10.10;52.10;;;;;;5034929;28;20200;-48
2021/12/19 08:57:05;;;;;;;5.50;3.55;;;10.10;52.10;;;;;;5035350;28;20188;-48
2021/12/19 08:59:33;;;;;;;5.10;2.70;;;10.20;51.80;;;;;;5017547;28;20174;-48
2021/12/19 09:02:02;;;;;;;2.95;1.98;;;10.10;51.90;;;;;;5034872;28;20220;-48
2021/12/19 09:04:31;;;;;;;5.05;2.72;;;10.10;52.10;;;;;;5001749;28;20162;-48
2021/12/19 09:06:59;;;;;;;4.47;2.00;;;10.10;52.20;;;;;;5017296;28;20253;-48
2021/12/19 09:09:28;;;;;;;3.63;1.98;;;10.20;51.90;;;;;;5035100;28;20169;-48
2021/12/19 09:11:56;;;;;;;2.70;1.67;;;10.10;51.90;;;;;;5001686;28;20162;-48
2021/12/19 09:14:23;;;;;;;3.75;1.65;;;10.00;52.10;;;;;;5034720;28;20511;-48
2021/12/19 09:16:51;;;;;;;3.15;1.98;;;10.10;52.10;;;;;;5034635;28;20173;-48
2021/12/19 09:19:21;;;;;;;2.03;1.83;;;10.20;51.90;;;;;;5034617;28;20228;-48
2021/12/19 09:21:48;;;;;;;3.28;2.13;;;10.20;51.60;;;;;;5034420;28;20224;-48
2021/12/19 09:24:16;;;;;;;1.92;1.00;;;10.20;51.50;;;;;;5001450;28;20201;-48
2021/12/19 09:26:44;;;;;;;3.78;2.42;;;10.20;51.60;;;;;;5038197;28;20232;-48
2021/12/19 09:29:11;;;;;;;3.03;1.83;;;10.20;51.30;;;;;;5039091;28;20536;-48
2021/12/19 09:31:39;;;;;;;2.45;1.50;;;10.10;51.90;;;;;;5021392;28;20169;-48
2021/12/19 09:34:07;;;;;;;3.38;2.10;;;9.90;52.30;;;;;;5038595;28;20228;-48
2021/12/19 09:36:36;;;;;;;3.15;1.90;;;9.80;52.70;;;;;;5038432;28;20227;-48
2021/12/19 09:39:05;;;;;;;3.75;1.88;;;9.80;52.40;;;;;;5038922;28;20181;-48
2021/12/19 09:41:36;;;;;;;3.03;2.38;;;10.00;52.10;;;;;;5038569;28;20251;-47
2021/12/19 09:44:07;;;;;;;2.13;1.77;;;10.00;52.10;;;;;;5021863;28;20166;-48
2021/12/19 09:46:40;;;;;;;4.20;3.33;;;10.10;52.10;;;;;;5038191;28;20245;-48
2021/12/19 09:49:11;;;;;;;2.67;1.83;;;10.10;52.10;;;;;;5020951;28;20174;-48
2021/12/19 09:51:40;;;;;;;4.55;2.45;;;10.30;51.70;;;;;;5021094;28;20146;-48
2021/12/19 09:54:09;;;;;;;2.00;1.45;;;10.30;51.30;;;;;;5020980;28;20189;-48
2021/12/19 09:56:38;;;;;;;4.95;1.85;;;10.30;51.40;;;;;;5038233;28;20636;-48
2021/12/19 09:59:13;;;;;;;5.22;2.60;;;10.40;51.30;;;;;;5005248;28;20177;-48
2021/12/19 10:01:41;;;;;;;2.78;1.70;;;10.40;50.70;;;;;;5038009;28;20216;-48
2021/12/19 10:04:44;;;;;;;5.82;2.78;;;10.50;50.80;;;;;;5038241;28;20662;-48
2021/12/19 10:07:11;;;;;;;3.17;1.90;;;10.50;50.60;;;;;;5037969;28;20591;-48
2021/12/19 10:10:02;;;;;;;2.58;1.35;;;10.40;50.40;;;;;;5038201;28;20162;-48
2021/12/19 10:12:48;;;;;;;2.95;2.13;;;10.40;50.80;;;;;;5020482;28;20170;-48
2021/12/19 10:15:22;;;;;;;1.95;1.42;;;10.40;50.80;;;;;;5007993;28;20571;-48
2021/12/19 10:18:09;;;;;;;4.15;2.00;;;10.20;51.30;;;;;;5037884;28;20183;-48
2021/12/19 10:20:47;;;;;;;3.38;1.77;;;9.90;52.60;;;;;;5020830;28;20213;-48
2021/12/19 10:23:26;;;;;;;2.08;1.88;;;9.90;52.50;;;;;;5037758;28;20158;-48
2021/12/19 10:25:58;;;;;;;3.30;2.20;;;9.90;52.60;;;;;;5037862;28;20189;-48
2021/12/19 10:28:28;;;;;;;2.10;1.30;;;9.90;52.80;;;;;;5020316;28;20204;-48
2021/12/19 10:30:57;;;;;;;3.13;2.35;;;9.90;52.60;;;;;;5020422;28;20187;-48
2021/12/19 10:33:28;;;;;;;3.30;1.40;;;9.90;52.80;;;;;;5020415;28;20178;-48
2021/12/19 10:35:58;;;;;;;4.18;2.00;;;10.00;52.20;;;;;;5020434;28;20166;-48
2021/12/19 10:38:35;;;;;;;3.35;1.52;;;10.10;51.80;;;;;;5020399;28;20595;-48
2021/12/19 10:41:11;;;;;;;6.22;3.10;;;10.20;51.50;;;;;;5037337;28;20206;-48
2021/12/19 10:44:03;;;;;;;3.13;1.90;;;10.00;52.10;;;;;;5020661;28;20260;-48
2021/12/19 10:46:33;;;;;;;2.83;1.60;;;10.10;51.90;;;;;;5021811;28;20220;-48
2021/12/19 10:49:02;;;;;;;3.60;2.10;;;10.20;51.60;;;;;;5020104;28;20240;-48
2021/12/19 10:51:32;;;;;;;2.28;1.70;;;10.10;51.10;;;;;;5037576;28;20233;-48
2021/12/19 10:54:03;;;;;;;6.30;2.95;;;10.10;51.90;;;;;;5036887;28;20182;-48
2021/12/19 10:56:34;;;;;;;1.63;1.50;;;10.30;51.40;;;;;;5019608;28;20268;-48
2021/12/19 10:59:08;;;;;;;3.25;1.02;;;10.30;51.40;;;;;;5037182;28;20249;-48
2021/12/19 11:01:38;;;;;;;3.40;2.17;;;10.40;51.10;;;;;;5003671;28;20189;-48
2021/12/19 11:04:06;;;;;;;4.35;3.00;;;10.30;51.30;;;;;;5037247;28;20197;-48
2021/12/19 11:06:42;;;;;;;5.25;3.05;;;10.50;51.00;;;;;;5036904;28;20158;-48
2021/12/19 11:09:15;;;;;;;2.85;1.30;;;10.40;50.80;;;;;;5019729;28;20173;-48
2021/12/19 11:11:48;;;;;;;3.97;2.00;;;10.40;50.80;;;;;;4987588;28;20170;-48
2021/12/19 11:14:20;;;;;;;3.60;2.08;;;10.40;51.00;;;;;;5003844;28;20236;-48
2021/12/19 11:16:50;;;;;;;2.67;1.63;;;10.40;50.90;;;;;;5019269;28;20178;-48
2021/12/19 11:19:18;;;;;;;2.42;1.88;;;10.50;50.80;;;;;;5019524;28;20174;-48
2021/12/19 11:21:46;;;;;;;2.53;2.00;;;10.40;51.30;;;;;;5003001;28;20244;-48
2021/12/19 11:24:16;;;;;;;2.35;2.00;;;10.40;51.10;;;;;;5036526;28;20166;-48
2021/12/19 11:26:47;;;;;;;2.58;1.70;;;10.40;51.10;;;;;;5004026;28;20162;-48
2021/12/19 11:29:15;;;;;;;4.78;2.35;;;10.40;51.00;;;;;;5019269;28;20463;-48
2021/12/19 11:31:46;;;;;;;4.63;2.70;;;10.50;51.20;;;;;;5036594;28;20166;-48
2021/12/19 11:34:20;;;;;;;4.80;2.15;;;10.50;50.90;;;;;;5019231;28;20611;-48
2021/12/19 11:36:56;;;;;;;4.13;2.00;;;10.50;50.90;;;;;;5036371;28;20591;-48
2021/12/19 11:39:34;;;;;;;3.40;2.40;;;10.40;51.30;;;;;;5036504;28;20193;-48
2021/12/19 11:42:11;;;;;;;2.78;2.28;;;10.30;51.80;;;;;;5036388;28;20260;-48
2021/12/19 11:45:07;;;;;;;2.40;1.52;;;10.40;51.60;;;;;;5019089;28;20166;-48
2021/12/19 11:47:43;;;;;;;2.00;1.67;;;10.30;51.50;;;;;;5035382;28;20221;-48
2021/12/19 11:50:21;;;;;;;3.38;1.42;;;10.40;51.90;;;;;;5019467;28;20235;-48
2021/12/19 11:52:50;;;;;;;3.63;2.30;;;10.40;51.50;;;;;;5035872;28;20495;-48
2021/12/19 11:55:19;;;;;;;2.78;1.60;;;10.40;51.50;;;;;;5018382;28;20170;-48
2021/12/19 11:58:08;;;;;;;3.08;2.25;;;10.30;51.70;;;;;;5035079;28;20169;-48
2021/12/19 12:01:03;;;;;;;3.10;1.77;;;10.40;51.70;;;;;;5018048;28;20232;-48
2021/12/19 12:03:42;;;;;;;3.75;1.92;;;10.20;52.10;;;;;;5035802;28;20154;-48
2021/12/19 12:06:16;;;;;;;3.00;1.60;;;10.10;52.60;;;;;;5002886;28;20312;-48
2021/12/19 12:09:26;;;;;;;3.17;1.67;;;10.00;52.60;;;;;;5035257;28;20637;-48
2021/12/19 12:12:08;;;;;;;7.72;3.35;;;10.10;52.90;;;;;;5034604;28;20241;-48
2021/12/19 12:15:02;;;;;;;3.03;1.92;;;10.10;52.70;;;;;;5018092;28;20682;-48
2021/12/19 12:17:39;;;;;;;3.40;2.15;;;10.20;52.50;;;;;;5035301;28;20548;-48
2021/12/19 12:20:18;;;;;;;1.30;0.75;;;10.20;51.90;;;;;;5018712;28;20169;-48
2021/12/19 12:22:59;;;;;;;1.90;1.63;;;10.10;52.10;;;;;;5018243;28;20162;-48
2021/12/19 12:25:28;;;;;;;2.60;1.10;;;10.00;52.20;;;;;;5035391;28;20150;-48
2021/12/19 12:28:03;;;;;;;1.80;1.25;;;10.10;52.10;;;;;;5035205;28;20213;-48
2021/12/19 12:30:46;;;;;;;2.78;1.80;;;10.20;51.90;;;;;;5019380;28;20181;-48
2021/12/19 12:33:16;;;;;;;5.80;2.20;;;10.30;52.00;;;;;;5004133;28;20661;-48
2021/12/19 12:35:47;;;;;;;2.78;1.42;;;10.20;52.00;;;;;;5035214;28;20162;-48
2021/12/19 12:38:15;;;;;;;3.28;1.95;;;10.20;51.70;;;;;;5018511;28;20170;-48
2021/12/19 12:41:06;;;;;;;3.47;1.98;;;10.20;51.90;;;;;;5002128;28;20189;-48
2021/12/19 12:43:39;;;;;;;5.43;2.53;;;10.20;52.10;;;;;;5021188;28;20264;-48
2021/12/19 12:46:15;;;;;;;2.95;1.33;;;10.30;51.90;;;;;;5002255;28;20249;-48
2021/12/19 12:48:58;;;;;;;5.15;2.05;;;10.30;51.60;;;;;;5052499;28;20220;-48
2021/12/19 12:51:34;;;;;;;2.80;1.70;;;10.40;51.60;;;;;;5055086;28;20157;-48
2021/12/19 12:54:13;;;;;;;2.42;1.77;;;10.40;51.30;;;;;;5037454;28;20219;-48
2021/12/19 12:56:46;;;;;;;3.42;2.03;;;10.30;51.60;;;;;;5054845;28;20174;-48
2021/12/19 12:59:15;;;;;;;3.30;1.30;;;10.50;51.30;;;;;;5053767;28;20185;-48
2021/12/19 13:01:49;;;;;;;4.20;0.95;;;10.50;51.10;;;;;;5053435;28;20219;-48
2021/12/19 13:04:27;;;;;;;2.90;1.40;;;10.40;51.10;;;;;;5038360;28;20153;-48
2021/12/19 13:06:59;;;;;;;1.48;1.02;;;10.40;51.10;;;;;;5053870;28;20157;-48
2021/12/19 13:09:34;;;;;;;3.15;1.33;;;10.50;51.00;;;;;;5055023;28;20153;-48
2021/12/19 13:12:12;;;;;;;2.30;1.48;;;10.50;50.70;;;;;;5054903;28;20598;-48
2021/12/19 13:14:48;;;;;;;1.60;1.10;;;10.60;50.70;;;;;;5054336;28;20173;-48
2021/12/19 13:17:22;;;;;;;1.73;0.80;;;10.60;50.80;;;;;;5054052;28;20180;-48
2021/12/19 13:19:53;;;;;;;2.55;1.42;;;10.50;51.20;;;;;;5054702;28;20157;-48
2021/12/19 13:22:38;;;;;;;1.63;0.63;;;10.50;51.30;;;;;;5037022;28;20197;-48
2021/12/19 13:25:11;;;;;;;1.80;0.88;;;10.60;51.30;;;;;;5053841;28;20171;-49
2021/12/19 13:27:44;;;;;;;1.85;1.05;;;10.50;51.70;;;;;;5053824;28;20200;-48
2021/12/19 13:30:20;;;;;;;1.80;1.05;;;10.50;52.10;;;;;;5053763;28;20495;-49
2021/12/19 13:32:57;;;;;;;2.28;1.27;;;10.50;52.10;;;;;;5054372;28;20161;-48
2021/12/19 13:35:47;;;;;;;3.58;1.10;;;10.40;52.10;;;;;;5053874;28;20235;-48
2021/12/19 13:38:26;;;;;;;3.33;1.80;;;10.30;53.00;;;;;;5054762;28;20246;-48
2021/12/19 13:40:55;;;;;;;3.50;1.50;;;10.20;53.50;;;;;;5054632;28;20280;-48
2021/12/19 13:43:25;;;;;;;2.55;1.60;;;10.20;54.00;;;;;;5054693;28;20165;-48
2021/12/19 13:46:01;;;;;;;2.03;1.23;;;10.30;53.70;;;;;;5054720;28;20247;-48
2021/12/19 13:48:52;;;;;;;2.22;1.20;;;10.30;53.60;;;;;;5053297;28;20545;-48
2021/12/19 13:51:29;;;;;;;2.33;1.20;;;10.40;53.30;;;;;;5053805;28;20161;-48
2021/12/19 13:53:59;;;;;;;4.40;1.98;;;10.30;53.40;;;;;;5037223;28;20184;-48
2021/12/19 13:56:32;;;;;;;2.45;1.00;;;10.20;53.70;;;;;;5054262;28;20172;-48
2021/12/19 13:59:06;;;;;;;1.70;0.85;;;10.20;54.40;;;;;;5054315;28;20242;-47
2021/12/19 14:01:39;;;;;;;3.35;1.85;;;10.30;53.70;;;;;;5053775;28;20215;-48
2021/12/19 14:04:19;;;;;;;1.17;0.47;;;10.30;53.70;;;;;;5053543;28;20252;-48
2021/12/19 14:06:49;;;;;;;1.40;0.98;;;10.30;53.40;;;;;;5054292;28;20625;-48
2021/12/19 14:09:22;;;;;;;1.60;0.90;;;10.30;53.40;;;;;;5054366;28;20282;-48
2021/12/19 14:11:56;;;;;;;1.98;1.77;;;10.30;53.60;;;;;;5038874;28;20188;-48
2021/12/19 14:14:30;;;;;;;1.80;0.90;;;10.10;54.30;;;;;;5041630;28;20167;-48
2021/12/19 14:17:01;;;;;;;4.32;0.57;;;10.00;54.20;;;;;;5056857;28;20206;-48